Huvudsida
METAR-TAF:

METAR-TAF

Flygplatser :

Udine, Italien

latitud: 45-59N, longitud: 013-02E, höjd: 51 m

Aktuellt väderrapport

Denna rapport gjordes för 7 timmar och 34 minuter sedan, klockan 13:55 UTC
Temperatur 30°C
Fuktighet 43%
Tryck 1011 hPa
Sikt 10 km eller mer
Få moln på en höjd av 2500 ft, Cumulonimbus.
Spridda moln på en höjd av 4000 ft
åska

METAR: LIPI 191355Z /////KT 9999 TS FEW025CB SCT040 30/16 Q1011 RMK BKN VIS MIN 9999 WIND THR06 17007KT WIND THR24 /////KT BLU

Tid: 23:29 (21:29 UTC)

Väderprognos

Denna rapport gjordes för 10 timmar och 29 minuter sedan, klockan 11:00 UTC
Prognos gäller från 19 kl. 12 UTC till 19 kl. 21 UTC
Vind 7 kt från syd/sydväst
Sikt 10 km eller mer
Få moln på en höjd av 6000 ft
Temporärt
från 19 kl. 14 UTC till 19 kl. 20 UTC
Sikt: 5000 m
Få moln på en höjd av 2000 ft, Cumulonimbus.
Spridda moln på en höjd av 4000 ft
åska, regn

TAF: LIPI 191100Z 1912/1921 21007KT 9999 FEW060 TEMPO 1914/1920 5000 TSRA FEW020CB SCT040

Aktuella väderrapporter och prognoser från 4000 flygplatser (METAR- och TAF-rapporter).

De tillgängliga stationerna syns som gula och röda prickar på kartan.

För musen över prickarna för att se namnen på stationerna.

Klicka sedan för att få väderrapporter och prognoser.

För att ändra kartan: Klicka på de gröna knapparna med ett svart kors på för att zooma in; den gröna knappen med ett streck på för att zooma ut; eller på de gröna pilarna för angränsande kartor.


METAR-TAF: